Helena, MT (59604)

11:27 AM MDT on September 03, 2015 (GMT -0600)
APRSWXNET | | Change Station
CLOSE
Current Station
Personal Weather Station
Location: Helena, MT
Elevation: 3733 ft
Nearby Weather Stations

Elev 3733 ft 46.64 °N, 111.94 °W | Updated 23 minutes ago

Scattered Clouds
Scattered Clouds
60 °F
Feels Like 60 °F
N
4
Wind Variable Wind from WNW
Gusts 7.0 mph

Today
High -- | Low -- °F
--% Chance of Precip.
Yesterday
High -- | Low -- °F
Precip. -- in
6:50 AM 8:03 PM
Waning Gibbous, 68% visible
Pressure 29.87 in
Visibility 10.0 miles
Clouds Few 4200 ft
Scattered Clouds 7500 ft
Scattered Clouds 12000 ft
Dew Point 40 °F
Humidity 47%
Rainfall in
Snow Depth Not available.
UV 4 out of 12
Pollen 7.40 out of 12
Air Quality Not available.
Flu Activity Not available.
METAR KHLN 031653Z 30011KT 10SM FEW042 SCT075 SCT120 16/05 A2990 RMK AO2 SLP114 T01560050
Pressure 29.87 in
Visibility 10.0 miles
Clouds Few 4200 ft
Scattered Clouds 7500 ft
Scattered Clouds 12000 ft
Dew Point 40 °F
Humidity 47%
Rainfall in
Snow Depth Not available.
UV 4 out of 12
Pollen 7.40 out of 12
Air Quality Not available.
Flu Activity Not available.
METAR KHLN 031653Z 30011KT 10SM FEW042 SCT075 SCT120 16/05 A2990 RMK AO2 SLP114 T01560050

10-Day Weather Forecast

×

Almanac

Astronomy

Sep. 03, 2015 Rise Set
Actual Time
Civil Twilight
Nautical Twilight
Astronomical Twilight
Moon
Length of Visible Light
Length of Day
Tomorrow will be .
, % of the Moon is Illuminated

Today's Extremes

State Highs State Lows

Community

WunderPhotos

Upload Photos

1,851,990 photos uploaded!

WunderBlogs® & News

Nearby

Air Quality

  Air Quality AQ Index Pollutant
Not available.

Snow Depth

Station Depth Elevation

Earthquake Activity

City Distance Mag. Time & Date
Minimum magnitude displayed is 2.5.

Coastal Water Temperatures

Place Temperature

Stations

Nearby Weather Stations

Station Location Temp. Windchill Dew Point Humidity Wind Precip. Elev Updated Type